createdAt,value
2022-11-30T00:01:19.208Z,29.70
2022-11-30T00:03:46.846Z,31.00
2022-11-30T00:06:15.879Z,31.42
2022-11-30T00:08:43.480Z,30.95
2022-11-30T00:11:17.991Z,31.50
2022-11-30T00:13:45.415Z,30.45
2022-11-30T00:16:12.430Z,28.77
2022-11-30T00:18:39.734Z,33.15
2022-11-30T00:21:10.991Z,31.67
2022-11-30T00:23:39.983Z,32.28
2022-11-30T00:26:12.459Z,32.10
2022-11-30T00:28:40.229Z,32.97
2022-11-30T00:31:11.038Z,29.15
2022-11-30T00:33:39.011Z,31.80
2022-11-30T00:36:12.344Z,30.15
2022-11-30T00:38:39.838Z,34.40
2022-11-30T00:41:07.290Z,28.63
2022-11-30T00:43:34.434Z,24.92
2022-11-30T00:46:01.669Z,32.05
2022-11-30T00:48:29.100Z,31.83
2022-11-30T00:50:56.150Z,32.42
2022-11-30T00:53:23.226Z,31.95
2022-11-30T00:55:50.388Z,31.45
2022-11-30T00:58:17.619Z,30.70
2022-11-30T01:00:44.874Z,32.28
2022-11-30T01:03:12.649Z,35.53
2022-11-30T01:05:40.411Z,29.02
2022-11-30T01:08:09.750Z,26.70
2022-11-30T01:10:38.849Z,29.63
2022-11-30T01:13:06.773Z,31.20
2022-11-30T01:15:38.800Z,39.50
2022-11-30T01:18:06.107Z,33.88
2022-11-30T01:20:33.170Z,31.95
2022-11-30T01:23:00.571Z,32.85
2022-11-30T01:25:27.522Z,31.40
2022-11-30T01:27:54.554Z,34.20
2022-11-30T01:30:21.513Z,30.35
2022-11-30T01:32:48.480Z,30.27
2022-11-30T01:35:15.536Z,30.15
2022-11-30T01:37:42.537Z,28.88
2022-11-30T01:40:11.690Z,27.60
2022-11-30T01:42:45.014Z,30.13
2022-11-30T01:45:13.168Z,28.52
2022-11-30T01:47:51.880Z,29.70
2022-11-30T01:50:30.448Z,27.42
2022-11-30T01:52:58.618Z,26.33
2022-11-30T01:55:32.567Z,30.90
2022-11-30T01:58:08.159Z,29.92
2022-11-30T02:00:35.595Z,27.15
2022-11-30T02:03:20.170Z,30.15
2022-11-30T02:05:47.430Z,28.80
2022-11-30T02:08:14.658Z,29.10
2022-11-30T02:10:47.871Z,26.15
2022-11-30T02:13:27.813Z,30.90
2022-11-30T02:16:09.273Z,31.17
2022-11-30T02:21:43.943Z,32.20
2022-11-30T02:24:14.017Z,28.40
2022-11-30T02:26:59.589Z,30.70
2022-11-30T02:29:36.879Z,32.95
2022-11-30T02:32:12.853Z,28.55
2022-11-30T02:34:42.286Z,26.90
2022-11-30T02:37:12.357Z,25.63
2022-11-30T02:39:39.499Z,28.83
2022-11-30T02:42:12.925Z,26.08
2022-11-30T02:44:47.761Z,25.38
2022-11-30T02:47:20.900Z,30.98
2022-11-30T02:50:19.885Z,31.10
2022-11-30T02:52:47.567Z,28.55
2022-11-30T02:55:17.289Z,25.33
2022-11-30T02:57:44.320Z,24.88
2022-11-30T03:00:12.970Z,25.17
2022-11-30T03:02:41.142Z,25.85
2022-11-30T03:05:08.792Z,24.98
2022-11-30T03:07:35.911Z,28.15
2022-11-30T03:10:03.458Z,27.80
2022-11-30T03:12:30.495Z,26.10
2022-11-30T03:14:57.513Z,28.65
2022-11-30T03:17:24.547Z,28.80
2022-11-30T03:19:51.546Z,27.33
2022-11-30T03:22:18.638Z,29.25
2022-11-30T03:24:46.106Z,25.90
2022-11-30T03:27:13.468Z,28.38
2022-11-30T03:29:40.590Z,23.85
2022-11-30T03:32:08.028Z,26.90
2022-11-30T03:34:35.159Z,24.88
2022-11-30T03:37:02.159Z,21.10
2022-11-30T03:39:29.223Z,23.40
2022-11-30T03:41:56.323Z,22.90
2022-11-30T03:44:23.321Z,24.88
2022-11-30T03:46:50.548Z,25.48
2022-11-30T03:49:17.601Z,22.67
2022-11-30T03:51:44.655Z,26.48
2022-11-30T03:54:11.751Z,26.08
2022-11-30T03:56:38.870Z,24.65
2022-11-30T03:59:05.883Z,24.85
2022-11-30T04:01:33.139Z,23.92
2022-11-30T04:04:00.110Z,23.50
2022-11-30T04:06:27.106Z,24.33
2022-11-30T04:08:54.159Z,25.33
2022-11-30T04:11:21.374Z,22.85
2022-11-30T04:13:48.372Z,24.45
2022-11-30T04:16:15.571Z,24.95
2022-11-30T04:18:42.657Z,22.50
2022-11-30T04:21:10.398Z,24.33
2022-11-30T04:23:39.706Z,24.13
2022-11-30T04:26:10.570Z,23.70
2022-11-30T04:28:37.621Z,25.75
2022-11-30T04:31:05.063Z,24.13
2022-11-30T04:33:32.392Z,29.45
2022-11-30T04:36:03.959Z,23.38
2022-11-30T04:38:32.886Z,28.10
2022-11-30T04:41:00.333Z,27.65
2022-11-30T04:43:27.366Z,26.55
2022-11-30T04:45:54.363Z,26.73
2022-11-30T04:48:21.378Z,26.88
2022-11-30T04:50:48.380Z,25.52
2022-11-30T04:53:15.577Z,25.98
2022-11-30T04:55:42.632Z,27.73
2022-11-30T04:58:09.687Z,26.20
2022-11-30T05:00:37.730Z,24.92
2022-11-30T05:03:04.750Z,24.10
2022-11-30T05:05:32.146Z,26.60
2022-11-30T05:08:00.584Z,24.90
2022-11-30T05:10:28.590Z,22.70
2022-11-30T05:12:56.524Z,26.67
2022-11-30T05:15:23.493Z,26.02
2022-11-30T05:17:50.566Z,22.65
2022-11-30T05:20:17.718Z,22.42
2022-11-30T05:22:44.817Z,20.73
2022-11-30T05:25:11.897Z,22.88
2022-11-30T05:27:39.014Z,24.17
2022-11-30T05:30:07.297Z,22.75
2022-11-30T05:32:35.165Z,26.02
2022-11-30T05:35:02.153Z,23.95
2022-11-30T05:37:29.142Z,23.05
2022-11-30T05:39:56.115Z,24.63
2022-11-30T05:42:23.230Z,23.95
2022-11-30T05:44:50.653Z,25.40
2022-11-30T05:47:17.993Z,25.52
2022-11-30T05:49:45.096Z,28.08
2022-11-30T05:52:12.125Z,25.80
2022-11-30T05:54:39.150Z,27.83
2022-11-30T05:57:06.110Z,26.75
2022-11-30T05:59:33.120Z,29.58
2022-11-30T06:02:00.378Z,27.15
2022-11-30T06:04:27.618Z,25.25
2022-11-30T06:06:55.927Z,27.30
2022-11-30T06:09:23.543Z,26.45
2022-11-30T06:11:51.088Z,23.33
2022-11-30T06:14:18.279Z,24.88
2022-11-30T06:16:46.299Z,22.02
2022-11-30T06:19:13.392Z,26.90
2022-11-30T06:21:40.579Z,28.85
2022-11-30T06:24:07.943Z,23.67
2022-11-30T06:26:34.944Z,25.45
2022-11-30T06:29:01.911Z,26.45
2022-11-30T06:31:30.475Z,27.63
2022-11-30T06:33:58.052Z,28.40
2022-11-30T06:36:25.407Z,26.42
2022-11-30T06:38:52.512Z,26.08
2022-11-30T06:41:19.612Z,26.38
2022-11-30T06:43:47.271Z,24.73
2022-11-30T06:46:15.646Z,29.08
2022-11-30T06:48:42.664Z,23.35
2022-11-30T06:51:11.221Z,20.60
2022-11-30T06:53:38.191Z,20.55
2022-11-30T06:56:10.858Z,24.60
2022-11-30T06:58:41.791Z,24.33
2022-11-30T07:01:11.462Z,20.45
2022-11-30T07:03:39.311Z,26.17
2022-11-30T07:06:11.411Z,25.80
2022-11-30T07:08:38.995Z,23.58
2022-11-30T07:11:07.067Z,25.15
2022-11-30T07:13:34.524Z,29.20
2022-11-30T07:16:06.759Z,24.02
2022-11-30T07:18:34.590Z,25.58
2022-11-30T07:21:03.076Z,27.70
2022-11-30T07:23:54.060Z,30.05
2022-11-30T07:26:22.852Z,35.83
2022-11-30T07:28:55.162Z,35.65
2022-11-30T07:31:31.003Z,56.28
2022-11-30T07:33:59.475Z,60.65
2022-11-30T07:36:27.949Z,45.08
2022-11-30T07:38:54.995Z,32.63
2022-11-30T07:41:22.197Z,28.85
2022-11-30T07:43:49.439Z,24.55
2022-11-30T07:46:17.524Z,24.77
2022-11-30T07:48:45.846Z,27.05
2022-11-30T07:51:15.442Z,25.95
2022-11-30T07:53:42.430Z,23.30
2022-11-30T07:56:12.600Z,27.10
2022-11-30T07:58:40.088Z,23.30
2022-11-30T08:01:12.736Z,23.92
2022-11-30T08:03:39.991Z,28.25
2022-11-30T08:06:09.526Z,28.80
2022-11-30T08:08:38.899Z,29.00
2022-11-30T08:11:08.032Z,30.13
2022-11-30T08:13:35.351Z,29.20
2022-11-30T08:16:08.222Z,25.45
2022-11-30T08:18:35.591Z,25.60
2022-11-30T08:21:05.067Z,25.60
2022-11-30T08:23:35.003Z,27.92
2022-11-30T08:26:15.549Z,26.02
2022-11-30T08:28:45.550Z,25.90
2022-11-30T08:31:21.504Z,25.83
2022-11-30T08:33:49.960Z,25.60
2022-11-30T08:36:19.846Z,27.50
2022-11-30T08:38:47.602Z,26.27
2022-11-30T08:41:19.032Z,24.45
2022-11-30T08:46:49.104Z,28.45
2022-11-30T08:49:20.439Z,26.75
2022-11-30T08:52:17.148Z,24.63
2022-11-30T08:57:31.872Z,27.02
2022-11-30T08:59:59.001Z,27.92
2022-11-30T09:02:26.026Z,26.35
2022-11-30T09:04:53.669Z,24.35
2022-11-30T09:07:20.787Z,31.67
2022-11-30T09:09:47.788Z,29.17
2022-11-30T09:12:14.938Z,30.23
2022-11-30T09:14:42.734Z,24.38
2022-11-30T09:17:09.804Z,28.15
2022-11-30T09:19:36.840Z,25.10
2022-11-30T09:22:03.899Z,26.00
2022-11-30T09:24:31.016Z,28.52
2022-11-30T09:26:58.067Z,28.42
2022-11-30T09:29:25.151Z,27.98
2022-11-30T09:31:52.293Z,26.48
2022-11-30T09:34:19.397Z,29.83
2022-11-30T09:36:46.495Z,29.60
2022-11-30T09:39:13.630Z,30.70
2022-11-30T09:42:04.860Z,30.73
2022-11-30T09:44:42.414Z,29.67
2022-11-30T09:47:27.471Z,30.73
2022-11-30T09:49:58.153Z,30.85
2022-11-30T09:52:39.244Z,32.53
2022-11-30T09:55:09.680Z,28.52
2022-11-30T09:57:52.769Z,30.23
2022-11-30T10:00:21.928Z,27.77
2022-11-30T10:02:50.928Z,29.45
2022-11-30T10:05:27.703Z,28.50
2022-11-30T10:08:19.679Z,31.05
2022-11-30T10:11:14.388Z,31.88
2022-11-30T10:14:23.219Z,32.38
2022-11-30T10:16:58.035Z,30.42
2022-11-30T10:19:54.569Z,32.25
2022-11-30T10:22:52.174Z,33.20
2022-11-30T10:25:23.708Z,33.28
2022-11-30T10:32:56.141Z,31.00
2022-11-30T10:35:40.663Z,30.00
2022-11-30T10:38:43.183Z,36.53
2022-11-30T10:41:31.246Z,29.88
2022-11-30T10:44:01.242Z,40.40
2022-11-30T10:46:34.115Z,33.78
2022-11-30T10:49:29.407Z,34.72
2022-11-30T10:52:03.145Z,33.83
2022-11-30T10:54:31.480Z,39.00
2022-11-30T10:57:01.906Z,37.97
2022-11-30T10:59:46.321Z,32.75
2022-11-30T11:02:40.132Z,34.85
2022-11-30T11:05:33.689Z,28.98
2022-11-30T11:08:18.207Z,29.55
2022-11-30T11:10:47.326Z,28.98
2022-11-30T11:13:18.643Z,36.05
2022-11-30T11:16:00.829Z,27.52
2022-11-30T11:18:36.142Z,27.23
2022-11-30T11:21:07.760Z,25.05
2022-11-30T11:23:40.695Z,26.58
2022-11-30T11:26:29.080Z,26.80
2022-11-30T11:29:01.332Z,24.65
2022-11-30T11:31:31.093Z,25.85
2022-11-30T11:33:58.415Z,22.83
2022-11-30T11:36:33.710Z,24.08
2022-11-30T11:39:01.577Z,27.70
2022-11-30T11:41:34.906Z,25.70
2022-11-30T11:44:05.200Z,24.88
2022-11-30T11:46:34.547Z,26.67
2022-11-30T11:49:21.351Z,36.95
2022-11-30T11:52:06.601Z,37.67
2022-11-30T11:54:33.634Z,32.42
2022-11-30T11:57:00.997Z,27.67
2022-11-30T11:59:54.176Z,29.58
2022-11-30T12:02:29.900Z,27.02
2022-11-30T12:05:15.699Z,28.00
2022-11-30T12:07:50.430Z,30.90
2022-11-30T12:13:22.972Z,27.00
2022-11-30T12:16:20.084Z,27.40
2022-11-30T12:19:03.209Z,28.38
2022-11-30T12:21:30.194Z,26.77
2022-11-30T12:24:18.980Z,26.38
2022-11-30T12:26:56.432Z,24.33
2022-11-30T12:30:13.987Z,22.58
2022-11-30T12:32:49.391Z,20.60
2022-11-30T12:36:07.192Z,25.38
2022-11-30T12:38:51.200Z,23.10
2022-11-30T12:41:30.638Z,25.08
2022-11-30T12:43:59.434Z,27.83
2022-11-30T12:46:53.375Z,23.17
2022-11-30T12:49:26.828Z,23.00
2022-11-30T12:52:06.779Z,23.35
2022-11-30T12:54:52.406Z,23.00
2022-11-30T12:57:31.576Z,24.48
2022-11-30T13:00:01.286Z,22.98
2022-11-30T13:02:47.900Z,26.83
2022-11-30T13:05:46.846Z,23.77
2022-11-30T13:08:22.934Z,24.00
2022-11-30T13:10:55.644Z,35.67
2022-11-30T13:13:31.151Z,25.90
2022-11-30T13:15:59.684Z,26.05
2022-11-30T13:18:27.972Z,26.42
2022-11-30T13:21:24.043Z,20.25
2022-11-30T13:24:15.485Z,23.92
2022-11-30T13:27:11.146Z,29.25
2022-11-30T13:29:56.185Z,23.25
2022-11-30T13:32:56.236Z,25.58
2022-11-30T13:35:42.551Z,28.02
2022-11-30T13:38:36.335Z,20.15
2022-11-30T13:41:07.143Z,24.40
2022-11-30T13:43:45.782Z,26.35
2022-11-30T13:46:20.501Z,25.23
2022-11-30T13:48:48.741Z,20.30
2022-11-30T13:51:37.320Z,21.88
2022-11-30T13:54:29.401Z,25.30
2022-11-30T13:56:56.822Z,25.83
2022-11-30T13:59:23.863Z,22.70
2022-11-30T14:01:51.827Z,22.85
2022-11-30T14:04:18.837Z,25.58
2022-11-30T14:06:52.203Z,24.55
2022-11-30T14:09:40.377Z,24.23
2022-11-30T14:12:37.250Z,22.45
2022-11-30T14:15:31.675Z,23.75
2022-11-30T14:17:59.689Z,22.27
2022-11-30T14:20:37.759Z,25.70
2022-11-30T14:23:13.271Z,21.75
2022-11-30T14:25:47.379Z,20.27
2022-11-30T14:28:21.764Z,24.92
2022-11-30T14:30:49.204Z,26.23
2022-11-30T14:33:22.726Z,22.15
2022-11-30T14:35:55.069Z,23.10
2022-11-30T14:38:29.586Z,21.95
2022-11-30T14:40:57.568Z,23.83
2022-11-30T14:43:25.133Z,24.58
2022-11-30T14:46:04.353Z,27.13
2022-11-30T14:48:32.761Z,23.35
2022-11-30T14:51:03.395Z,21.50
2022-11-30T14:53:54.706Z,22.07
2022-11-30T14:56:29.070Z,31.38
2022-11-30T14:59:17.883Z,35.17
2022-11-30T15:01:45.090Z,27.38
2022-11-30T15:04:16.274Z,29.45
2022-11-30T15:06:43.719Z,25.42
2022-11-30T15:09:27.512Z,21.27
2022-11-30T15:11:54.740Z,26.40
2022-11-30T15:14:21.917Z,25.90
2022-11-30T15:16:54.434Z,18.58
2022-11-30T15:19:28.032Z,24.38
2022-11-30T15:21:56.755Z,20.98
2022-11-30T15:24:24.940Z,19.27
2022-11-30T15:26:57.958Z,18.67
2022-11-30T15:29:31.378Z,20.65
2022-11-30T15:32:00.875Z,19.92
2022-11-30T15:34:40.660Z,20.92
2022-11-30T15:37:07.875Z,29.95
2022-11-30T15:39:34.945Z,26.27
2022-11-30T15:42:05.014Z,28.58
2022-11-30T15:44:40.216Z,29.23
2022-11-30T15:47:27.766Z,24.98
2022-11-30T15:49:55.896Z,25.65
2022-11-30T15:52:28.482Z,26.45
2022-11-30T15:55:03.745Z,21.85
2022-11-30T15:57:59.329Z,26.27
2022-11-30T16:00:27.329Z,24.27
2022-11-30T16:03:12.090Z,20.45
2022-11-30T16:05:40.025Z,24.63
2022-11-30T16:08:18.011Z,23.73
2022-11-30T16:10:45.593Z,27.23
2022-11-30T16:13:17.371Z,22.38
2022-11-30T16:15:50.175Z,24.75
2022-11-30T16:18:23.455Z,22.92
2022-11-30T16:20:54.804Z,24.33
2022-11-30T16:23:22.487Z,22.95
2022-11-30T16:25:52.545Z,22.70
2022-11-30T16:28:22.286Z,40.63
2022-11-30T16:30:50.563Z,41.17
2022-11-30T16:33:27.962Z,34.58
2022-11-30T16:36:02.841Z,33.15
2022-11-30T16:38:30.784Z,27.60
2022-11-30T16:41:15.275Z,26.05
2022-11-30T16:43:44.181Z,29.08
2022-11-30T16:46:13.591Z,26.35
2022-11-30T16:48:43.006Z,27.55
2022-11-30T16:51:24.229Z,24.52
2022-11-30T16:53:51.622Z,25.05
2022-11-30T16:56:20.703Z,21.75
2022-11-30T16:58:48.255Z,25.85
2022-11-30T17:01:54.344Z,21.65
2022-11-30T17:04:26.924Z,22.02
2022-11-30T17:07:01.904Z,22.83
2022-11-30T17:09:30.488Z,39.15
2022-11-30T17:11:58.556Z,28.83
2022-11-30T17:14:26.165Z,25.80
2022-11-30T17:16:55.428Z,23.20
2022-11-30T17:19:23.399Z,23.02
2022-11-30T17:21:52.477Z,21.02
2022-11-30T17:24:21.063Z,21.92
2022-11-30T17:26:49.023Z,23.38
2022-11-30T17:29:16.556Z,22.48
2022-11-30T17:31:44.383Z,23.92
2022-11-30T17:34:11.941Z,22.60
2022-11-30T17:36:39.602Z,22.83
2022-11-30T17:39:08.904Z,18.67
2022-11-30T17:41:38.256Z,24.10
2022-11-30T17:44:05.818Z,21.95
2022-11-30T17:46:34.882Z,22.23
2022-11-30T17:49:02.458Z,20.73
2022-11-30T17:51:30.295Z,18.83
2022-11-30T17:53:57.981Z,14.57
2022-11-30T17:56:26.245Z,16.25
2022-11-30T17:58:54.123Z,17.30
2022-11-30T18:01:22.039Z,18.98
2022-11-30T18:03:51.420Z,19.45
2022-11-30T18:06:20.211Z,16.60
2022-11-30T18:08:48.916Z,18.30
2022-11-30T18:11:21.870Z,18.35
2022-11-30T18:13:53.401Z,21.63
2022-11-30T18:16:26.630Z,16.27
2022-11-30T18:18:57.034Z,16.10
2022-11-30T18:21:28.540Z,17.92
2022-11-30T18:23:58.942Z,20.10
2022-11-30T18:26:27.854Z,14.43
2022-11-30T18:29:02.340Z,15.68
2022-11-30T18:31:32.172Z,15.00
2022-11-30T18:34:06.808Z,15.45
2022-11-30T18:36:35.515Z,13.70
2022-11-30T18:39:03.902Z,16.85
2022-11-30T18:41:31.907Z,12.75
2022-11-30T18:44:02.511Z,12.25
2022-11-30T18:46:31.185Z,11.80
2022-11-30T18:49:00.093Z,16.73
2022-11-30T18:51:30.217Z,9.27
2022-11-30T18:54:02.265Z,8.30
2022-11-30T18:56:32.471Z,11.13
2022-11-30T18:59:02.915Z,11.80
2022-11-30T19:01:33.201Z,9.23
2022-11-30T19:04:06.771Z,11.65
2022-11-30T19:06:35.896Z,10.90
2022-11-30T19:09:09.221Z,10.65
2022-11-30T19:11:38.593Z,10.68
2022-11-30T19:14:07.805Z,9.52
2022-11-30T19:16:37.052Z,10.43
2022-11-30T19:19:08.387Z,12.68
2022-11-30T19:21:36.810Z,11.20
2022-11-30T19:24:05.426Z,14.00
2022-11-30T19:26:52.306Z,11.73
2022-11-30T19:29:20.597Z,15.07
2022-11-30T19:31:48.910Z,12.85
2022-11-30T19:34:17.250Z,12.52
2022-11-30T19:36:45.590Z,11.95
2022-11-30T19:39:13.966Z,13.60
2022-11-30T19:41:43.222Z,11.65
2022-11-30T19:44:16.064Z,9.30
2022-11-30T19:46:45.604Z,11.88
2022-11-30T19:49:13.871Z,13.23
2022-11-30T19:51:42.262Z,14.80
2022-11-30T19:54:11.046Z,13.18
2022-11-30T19:56:39.862Z,14.32
2022-11-30T19:59:10.238Z,15.45
2022-11-30T20:01:39.155Z,12.70
2022-11-30T20:04:10.840Z,15.05
2022-11-30T20:06:40.935Z,14.63
2022-11-30T20:09:11.932Z,14.98
2022-11-30T20:11:41.736Z,16.52
2022-11-30T20:14:16.483Z,16.08
2022-11-30T20:16:45.708Z,12.82
2022-11-30T20:19:13.702Z,13.52
2022-11-30T20:21:43.334Z,17.13
2022-11-30T20:24:14.192Z,14.90
2022-11-30T20:26:44.471Z,15.40
2022-11-30T20:29:15.987Z,15.40
2022-11-30T20:31:47.152Z,15.40
2022-11-30T20:34:16.224Z,13.82
2022-11-30T20:36:46.209Z,15.30
2022-11-30T20:39:15.028Z,16.50
2022-11-30T20:41:43.472Z,16.08
2022-11-30T20:44:16.587Z,14.60
2022-11-30T20:46:46.435Z,14.40
2022-11-30T20:49:19.712Z,15.75
2022-11-30T20:51:48.650Z,15.27
2022-11-30T20:54:18.766Z,16.00
2022-11-30T20:56:51.091Z,16.15
2022-11-30T20:59:24.136Z,16.52
2022-11-30T21:01:52.296Z,13.95
2022-11-30T21:04:21.354Z,17.55
2022-11-30T21:06:51.814Z,17.15
2022-11-30T21:09:20.788Z,17.60
2022-11-30T21:11:49.186Z,15.68
2022-11-30T21:14:20.610Z,16.73
2022-11-30T21:16:47.879Z,16.05
2022-11-30T21:19:15.653Z,16.75
2022-11-30T21:21:42.869Z,17.38
2022-11-30T21:24:12.102Z,15.60
2022-11-30T21:26:41.912Z,18.05
2022-11-30T21:29:14.789Z,15.60
2022-11-30T21:31:42.359Z,15.07
2022-11-30T21:34:09.695Z,16.80
2022-11-30T21:36:36.953Z,14.80
2022-11-30T21:39:07.070Z,15.35
2022-11-30T21:41:39.608Z,14.35
2022-11-30T21:44:10.353Z,16.13
2022-11-30T21:46:38.023Z,16.23
2022-11-30T21:49:05.376Z,14.35
2022-11-30T21:51:32.949Z,15.27
2022-11-30T21:54:02.564Z,12.85
2022-11-30T21:56:32.504Z,16.55
2022-11-30T21:59:00.329Z,14.90
2022-11-30T22:01:30.367Z,14.30
2022-11-30T22:03:59.231Z,18.33
2022-11-30T22:06:27.914Z,15.88
2022-11-30T22:09:03.055Z,17.67
2022-11-30T22:11:31.167Z,15.13
2022-11-30T22:13:58.388Z,14.13
2022-11-30T22:16:29.981Z,19.90
2022-11-30T22:19:01.455Z,16.90
2022-11-30T22:21:30.559Z,17.17
2022-11-30T22:23:59.900Z,19.67
2022-11-30T22:26:38.502Z,19.35
2022-11-30T22:29:14.113Z,16.58
2022-11-30T22:31:42.759Z,16.83
2022-11-30T22:34:11.493Z,17.85
2022-11-30T22:36:40.453Z,18.10
2022-11-30T22:39:09.452Z,17.80
2022-11-30T22:41:36.624Z,19.13
2022-11-30T22:44:04.180Z,16.27
2022-11-30T22:46:34.174Z,18.63
2022-11-30T22:49:03.216Z,16.17
2022-11-30T22:51:32.159Z,15.98
2022-11-30T22:53:59.954Z,17.67
2022-11-30T22:56:29.871Z,17.05
2022-11-30T22:59:00.098Z,16.17
2022-11-30T23:01:32.739Z,15.05
2022-11-30T23:04:06.694Z,13.85
2022-11-30T23:06:34.789Z,13.50
2022-11-30T23:09:03.439Z,14.25
2022-11-30T23:11:31.305Z,12.10
2022-11-30T23:13:58.556Z,16.15
2022-11-30T23:16:26.119Z,14.95
2022-11-30T23:18:55.701Z,12.38
2022-11-30T23:21:25.548Z,10.80
2022-11-30T23:23:54.746Z,13.45
2022-11-30T23:26:36.412Z,11.75
2022-11-30T23:29:10.065Z,13.25
2022-11-30T23:31:39.678Z,13.18
2022-11-30T23:34:09.309Z,11.18
2022-11-30T23:36:36.957Z,10.57
2022-11-30T23:39:09.588Z,10.95
2022-11-30T23:41:36.657Z,12.32
2022-11-30T23:44:04.377Z,11.93
2022-11-30T23:46:31.631Z,9.85
2022-11-30T23:48:58.932Z,10.20
2022-11-30T23:51:26.074Z,10.13
2022-11-30T23:53:53.839Z,12.25
2022-11-30T23:56:22.665Z,11.60
2022-11-30T23:58:50.213Z,10.75
